Aviation Digital Data Service (ADDS)

Output produced by METARs form (0226 UTC 21 November 2017)
found at http://www.aviationweather.gov/adds/metars/
 
LRCK 210200Z 30008KT CAVOK 01/01 Q1013 NOSIG
TAF LRCK 202300Z 2100/2124 33010KT CAVOK 
     PROB40 
     TEMPO 2100/2106 3000 BR
       
LRTC 210200Z AUTO 31012KT 7000 BKN060/// 03/01 Q1014
LRBC 210200Z AUTO 32004KT 9999 NCD 01/M00 Q1014
TAF LRBC 201700Z 2018/2103 35006KT 9999 SCT060 
     BECMG 2021/2023 3000 BR 
     BECMG 2023/2101 1500 BR 
     TEMPO 2101/2103 0600 FZFG BKN002
       
LRIA 210200Z 28004KT CAVOK 00/M04 Q1014
TAF LRIA 202300Z 2100/2109 32008KT CAVOK 
     TEMPO 2101/2106 3000 BR
       
LRSV 210200Z 26009KT CAVOK M01/M03 Q1012
TAF LRSV 202300Z 2100/2109 33006KT CAVOK 
     TEMPO 2100/2106 3000 BR
       
LROP 210200Z 26004KT CAVOK M01/M02 Q1015 NOSIG
TAF LROP 202300Z 2100/2124 25005KT CAVOK
       
LRBS 210200Z 26002KT CAVOK 00/M01 Q1016 NOSIG
TAF LRBS 202300Z 2100/2124 25005KT CAVOK
       
LRCV 210200Z 27007KT CAVOK M00/M03 Q1016
TAF LRCV 202300Z 2100/2109 27008KT CAVOK
       
LRSB 210200Z 23002KT 9999 FEW062 M02/M05 Q1015
TAF LRSB 202300Z 2100/2124 28010KT 9999 BKN050 
     BECMG 2115/2117 VRB02KT 
     PROB40 
     TEMPO 2116/2123 5000 RASN
       
LRAR 210200Z AUTO 20005KT 9999 R09////// R27/P2000 NCD 01/M00 Q1017
LRCL 210200Z 00000KT CAVOK M03/M04 Q1015
TAF LRCL 202300Z 2100/2109 30008KT 9999 BKN040 
     PROB40 
     TEMPO 2106/2109 5000 -SNRA
       
LRTR 210200Z AUTO 12005KT 4600 BR BKN150/// M01/M03 Q1018
TAF LRTR 202300Z 2100/2124 28007KT 9999 SCT035 
     BECMG 2108/2110 19010KT 5000 -RA BR BKN015 BKN030 
     TEMPO 2110/2121 3000 RA BR BKN010 OVC025
       
LRTM 210200Z AUTO 11001KT 6000 FEW043/// BKN061/// 00/M01 Q1015
LRBM 210200Z AUTO /////KT //// FEW023/// SCT220/// ///// Q1015
LRSM 210200Z AUTO 21007KT 9999 FEW055/// M00/M01 Q1015
LROD 210200Z AUTO 19008KT 9999 SCT031/// BKN070/// BKN120/// 01/M00 Q1016
TAF LROD 201700Z 2018/2103 23006KT 9999 SCT035 
     BECMG 2020/2022 5000 BR BKN015
       
LRCT 202300Z 18003KT 8000 BKN070 00/M00 Q1015 BLU BLU